sensor_id;sensor_type;location;lat;lon;timestamp;P1;durP1;ratioP1;P2;durP2;ratioP2
57752;SDS011;43583;53.132;6.574;2023-07-13T00:01:11;1.05;;;0.28;;
57752;SDS011;43583;53.132;6.574;2023-07-13T00:03:41;7.00;;;0.50;;
57752;SDS011;43583;53.132;6.574;2023-07-13T00:06:07;4.63;;;0.73;;
57752;SDS011;43583;53.132;6.574;2023-07-13T00:08:33;4.30;;;0.80;;
57752;SDS011;43583;53.132;6.574;2023-07-13T00:11:00;3.33;;;0.50;;
57752;SDS011;43583;53.132;6.574;2023-07-13T00:13:26;2.35;;;0.30;;
57752;SDS011;43583;53.132;6.574;2023-07-13T00:15:52;6.93;;;0.88;;
57752;SDS011;43583;53.132;6.574;2023-07-13T00:18:19;4.10;;;0.77;;
57752;SDS011;43583;53.132;6.574;2023-07-13T00:20:45;2.65;;;0.40;;
57752;SDS011;43583;53.132;6.574;2023-07-13T00:23:10;6.00;;;1.80;;
57752;SDS011;43583;53.132;6.574;2023-07-13T00:25:36;8.02;;;0.70;;
57752;SDS011;43583;53.132;6.574;2023-07-13T00:28:02;4.47;;;0.50;;
57752;SDS011;43583;53.132;6.574;2023-07-13T00:30:27;3.42;;;1.25;;
57752;SDS011;43583;53.132;6.574;2023-07-13T00:32:53;6.15;;;0.73;;
57752;SDS011;43583;53.132;6.574;2023-07-13T00:35:18;5.35;;;0.85;;
57752;SDS011;43583;53.132;6.574;2023-07-13T00:37:44;6.53;;;0.80;;
57752;SDS011;43583;53.132;6.574;2023-07-13T00:40:11;5.25;;;0.50;;
57752;SDS011;43583;53.132;6.574;2023-07-13T00:42:38;9.15;;;0.98;;
57752;SDS011;43583;53.132;6.574;2023-07-13T00:45:06;3.17;;;0.68;;
57752;SDS011;43583;53.132;6.574;2023-07-13T00:47:31;10.55;;;1.27;;
57752;SDS011;43583;53.132;6.574;2023-07-13T00:49:57;5.47;;;0.60;;
57752;SDS011;43583;53.132;6.574;2023-07-13T00:52:23;6.90;;;0.52;;
57752;SDS011;43583;53.132;6.574;2023-07-13T00:54:49;2.75;;;0.90;;
57752;SDS011;43583;53.132;6.574;2023-07-13T00:57:16;4.88;;;0.52;;
57752;SDS011;43583;53.132;6.574;2023-07-13T00:59:46;5.43;;;0.40;;
57752;SDS011;43583;53.132;6.574;2023-07-13T01:02:16;2.67;;;0.50;;
57752;SDS011;43583;53.132;6.574;2023-07-13T01:04:41;7.05;;;1.00;;
57752;SDS011;43583;53.132;6.574;2023-07-13T01:07:08;3.42;;;0.75;;
57752;SDS011;43583;53.132;6.574;2023-07-13T01:09:35;7.65;;;0.73;;
57752;SDS011;43583;53.132;6.574;2023-07-13T01:12:01;6.47;;;1.08;;
57752;SDS011;43583;53.132;6.574;2023-07-13T01:14:26;6.82;;;0.68;;
57752;SDS011;43583;53.132;6.574;2023-07-13T01:16:52;6.30;;;0.90;;
57752;SDS011;43583;53.132;6.574;2023-07-13T01:19:22;3.10;;;0.70;;
57752;SDS011;43583;53.132;6.574;2023-07-13T01:22:01;6.65;;;0.93;;
57752;SDS011;43583;53.132;6.574;2023-07-13T01:24:28;5.13;;;0.98;;
57752;SDS011;43583;53.132;6.574;2023-07-13T01:26:54;8.30;;;1.17;;
57752;SDS011;43583;53.132;6.574;2023-07-13T01:29:19;7.40;;;0.98;;
57752;SDS011;43583;53.132;6.574;2023-07-13T01:31:46;3.47;;;0.77;;
57752;SDS011;43583;53.132;6.574;2023-07-13T01:34:11;6.47;;;0.82;;
57752;SDS011;43583;53.132;6.574;2023-07-13T01:36:37;6.40;;;1.40;;
57752;SDS011;43583;53.132;6.574;2023-07-13T01:39:03;7.72;;;1.08;;
57752;SDS011;43583;53.132;6.574;2023-07-13T01:41:29;7.28;;;1.27;;
57752;SDS011;43583;53.132;6.574;2023-07-13T01:43:55;10.10;;;0.90;;
57752;SDS011;43583;53.132;6.574;2023-07-13T01:46:20;7.57;;;0.85;;
57752;SDS011;43583;53.132;6.574;2023-07-13T01:48:46;7.53;;;0.73;;
57752;SDS011;43583;53.132;6.574;2023-07-13T01:51:12;9.30;;;1.35;;
57752;SDS011;43583;53.132;6.574;2023-07-13T01:53:38;7.53;;;0.80;;
57752;SDS011;43583;53.132;6.574;2023-07-13T01:56:04;4.15;;;0.50;;
57752;SDS011;43583;53.132;6.574;2023-07-13T01:58:29;4.85;;;0.65;;
57752;SDS011;43583;53.132;6.574;2023-07-13T02:00:55;8.20;;;2.17;;
57752;SDS011;43583;53.132;6.574;2023-07-13T02:03:20;8.00;;;1.00;;
57752;SDS011;43583;53.132;6.574;2023-07-13T02:05:46;6.13;;;0.80;;
57752;SDS011;43583;53.132;6.574;2023-07-13T02:08:11;4.38;;;1.10;;
57752;SDS011;43583;53.132;6.574;2023-07-13T02:10:37;7.93;;;0.75;;
57752;SDS011;43583;53.132;6.574;2023-07-13T02:13:04;4.82;;;0.50;;
57752;SDS011;43583;53.132;6.574;2023-07-13T02:15:31;8.40;;;0.70;;
57752;SDS011;43583;53.132;6.574;2023-07-13T02:17:56;4.60;;;1.08;;
57752;SDS011;43583;53.132;6.574;2023-07-13T02:20:23;7.40;;;0.93;;
57752;SDS011;43583;53.132;6.574;2023-07-13T02:22:49;5.65;;;0.70;;
57752;SDS011;43583;53.132;6.574;2023-07-13T02:25:15;4.68;;;0.98;;
57752;SDS011;43583;53.132;6.574;2023-07-13T02:27:41;10.68;;;1.35;;
57752;SDS011;43583;53.132;6.574;2023-07-13T02:30:07;4.88;;;0.95;;
57752;SDS011;43583;53.132;6.574;2023-07-13T02:32:33;3.28;;;0.60;;
57752;SDS011;43583;53.132;6.574;2023-07-13T02:35:00;8.88;;;0.90;;
57752;SDS011;43583;53.132;6.574;2023-07-13T02:37:25;8.82;;;1.13;;
57752;SDS011;43583;53.132;6.574;2023-07-13T02:39:51;8.48;;;1.13;;
57752;SDS011;43583;53.132;6.574;2023-07-13T02:42:17;5.97;;;1.50;;
57752;SDS011;43583;53.132;6.574;2023-07-13T02:44:42;8.35;;;1.23;;
57752;SDS011;43583;53.132;6.574;2023-07-13T02:47:08;5.90;;;0.65;;
57752;SDS011;43583;53.132;6.574;2023-07-13T02:49:33;6.75;;;0.90;;
57752;SDS011;43583;53.132;6.574;2023-07-13T02:51:59;6.20;;;0.85;;
57752;SDS011;43583;53.132;6.574;2023-07-13T02:54:24;6.38;;;1.23;;
57752;SDS011;43583;53.132;6.574;2023-07-13T02:56:50;5.10;;;1.10;;
57752;SDS011;43583;53.132;6.574;2023-07-13T02:59:16;13.95;;;1.48;;
57752;SDS011;43583;53.132;6.574;2023-07-13T03:01:41;6.75;;;0.80;;
57752;SDS011;43583;53.132;6.574;2023-07-13T03:04:07;6.28;;;1.23;;
57752;SDS011;43583;53.132;6.574;2023-07-13T03:06:33;8.95;;;1.20;;
57752;SDS011;43583;53.132;6.574;2023-07-13T03:08:58;5.50;;;1.30;;
57752;SDS011;43583;53.132;6.574;2023-07-13T03:11:25;7.70;;;1.27;;
57752;SDS011;43583;53.132;6.574;2023-07-13T03:13:51;5.47;;;0.70;;
57752;SDS011;43583;53.132;6.574;2023-07-13T03:16:17;6.40;;;1.20;;
57752;SDS011;43583;53.132;6.574;2023-07-13T03:18:43;4.28;;;0.70;;
57752;SDS011;43583;53.132;6.574;2023-07-13T03:21:09;5.78;;;1.23;;
57752;SDS011;43583;53.132;6.574;2023-07-13T03:23:35;7.00;;;1.73;;
57752;SDS011;43583;53.132;6.574;2023-07-13T03:26:08;4.18;;;0.88;;
57752;SDS011;43583;53.132;6.574;2023-07-13T03:28:37;7.40;;;0.85;;
57752;SDS011;43583;53.132;6.574;2023-07-13T03:31:04;6.93;;;0.70;;
57752;SDS011;43583;53.132;6.574;2023-07-13T03:33:35;6.55;;;1.23;;
57752;SDS011;43583;53.132;6.574;2023-07-13T03:36:02;8.65;;;1.00;;
57752;SDS011;43583;53.132;6.574;2023-07-13T03:38:29;9.30;;;1.05;;
57752;SDS011;43583;53.132;6.574;2023-07-13T03:40:55;14.57;;;1.92;;
57752;SDS011;43583;53.132;6.574;2023-07-13T03:43:20;5.28;;;1.45;;
57752;SDS011;43583;53.132;6.574;2023-07-13T03:45:46;6.88;;;1.77;;
57752;SDS011;43583;53.132;6.574;2023-07-13T03:48:12;10.27;;;1.48;;
57752;SDS011;43583;53.132;6.574;2023-07-13T03:50:38;5.55;;;0.88;;
57752;SDS011;43583;53.132;6.574;2023-07-13T03:53:04;14.00;;;1.63;;
57752;SDS011;43583;53.132;6.574;2023-07-13T03:55:30;7.60;;;2.08;;
57752;SDS011;43583;53.132;6.574;2023-07-13T03:58:30;7.03;;;1.80;;
57752;SDS011;43583;53.132;6.574;2023-07-13T04:00:48;9.23;;;1.95;;
57752;SDS011;43583;53.132;6.574;2023-07-13T04:03:15;4.30;;;1.52;;
57752;SDS011;43583;53.132;6.574;2023-07-13T04:05:41;5.50;;;1.13;;
57752;SDS011;43583;53.132;6.574;2023-07-13T04:08:07;5.97;;;1.23;;
57752;SDS011;43583;53.132;6.574;2023-07-13T04:10:32;6.07;;;1.20;;
57752;SDS011;43583;53.132;6.574;2023-07-13T04:12:58;8.35;;;1.40;;
57752;SDS011;43583;53.132;6.574;2023-07-13T04:15:23;12.13;;;1.42;;
57752;SDS011;43583;53.132;6.574;2023-07-13T04:17:49;6.45;;;1.02;;
57752;SDS011;43583;53.132;6.574;2023-07-13T04:20:14;4.80;;;0.95;;
57752;SDS011;43583;53.132;6.574;2023-07-13T04:22:40;9.77;;;1.85;;
57752;SDS011;43583;53.132;6.574;2023-07-13T04:25:06;5.05;;;1.52;;
57752;SDS011;43583;53.132;6.574;2023-07-13T04:27:31;7.32;;;1.63;;
57752;SDS011;43583;53.132;6.574;2023-07-13T04:29:57;8.20;;;1.33;;
57752;SDS011;43583;53.132;6.574;2023-07-13T04:32:22;6.90;;;1.42;;
57752;SDS011;43583;53.132;6.574;2023-07-13T04:34:48;7.22;;;1.65;;
57752;SDS011;43583;53.132;6.574;2023-07-13T04:37:18;8.63;;;1.10;;
57752;SDS011;43583;53.132;6.574;2023-07-13T04:39:43;6.32;;;1.10;;
57752;SDS011;43583;53.132;6.574;2023-07-13T04:42:09;8.60;;;0.70;;
57752;SDS011;43583;53.132;6.574;2023-07-13T04:44:34;10.93;;;1.05;;
57752;SDS011;43583;53.132;6.574;2023-07-13T04:47:00;5.55;;;0.93;;
57752;SDS011;43583;53.132;6.574;2023-07-13T04:49:25;7.45;;;1.10;;
57752;SDS011;43583;53.132;6.574;2023-07-13T04:51:51;6.30;;;1.02;;
57752;SDS011;43583;53.132;6.574;2023-07-13T04:54:16;9.95;;;1.00;;
57752;SDS011;43583;53.132;6.574;2023-07-13T04:56:42;8.18;;;0.98;;
57752;SDS011;43583;53.132;6.574;2023-07-13T04:59:07;6.75;;;1.42;;
57752;SDS011;43583;53.132;6.574;2023-07-13T05:01:33;6.30;;;0.70;;
57752;SDS011;43583;53.132;6.574;2023-07-13T05:03:59;7.45;;;0.70;;
57752;SDS011;43583;53.132;6.574;2023-07-13T05:06:24;5.38;;;0.82;;
57752;SDS011;43583;53.132;6.574;2023-07-13T05:08:50;5.55;;;0.57;;
57752;SDS011;43583;53.132;6.574;2023-07-13T05:11:17;3.78;;;1.00;;
57752;SDS011;43583;53.132;6.574;2023-07-13T05:13:43;3.88;;;0.70;;
57752;SDS011;43583;53.132;6.574;2023-07-13T05:16:08;4.22;;;0.73;;
57752;SDS011;43583;53.132;6.574;2023-07-13T05:18:34;10.02;;;0.70;;
57752;SDS011;43583;53.132;6.574;2023-07-13T05:21:01;5.00;;;1.10;;
57752;SDS011;43583;53.132;6.574;2023-07-13T05:23:28;6.55;;;1.00;;
57752;SDS011;43583;53.132;6.574;2023-07-13T05:25:55;6.70;;;0.55;;
57752;SDS011;43583;53.132;6.574;2023-07-13T05:28:21;3.35;;;1.17;;
57752;SDS011;43583;53.132;6.574;2023-07-13T05:30:47;4.97;;;0.50;;
57752;SDS011;43583;53.132;6.574;2023-07-13T05:33:14;3.47;;;0.32;;
57752;SDS011;43583;53.132;6.574;2023-07-13T05:35:39;2.70;;;0.95;;
57752;SDS011;43583;53.132;6.574;2023-07-13T05:38:05;5.10;;;0.90;;
57752;SDS011;43583;53.132;6.574;2023-07-13T05:40:31;4.35;;;0.40;;
57752;SDS011;43583;53.132;6.574;2023-07-13T05:42:57;7.20;;;0.40;;
57752;SDS011;43583;53.132;6.574;2023-07-13T05:45:22;3.45;;;0.25;;
57752;SDS011;43583;53.132;6.574;2023-07-13T05:47:48;4.88;;;0.50;;
57752;SDS011;43583;53.132;6.574;2023-07-13T05:50:13;3.95;;;0.30;;
57752;SDS011;43583;53.132;6.574;2023-07-13T05:52:39;2.83;;;0.30;;
57752;SDS011;43583;53.132;6.574;2023-07-13T05:55:05;4.93;;;0.77;;
57752;SDS011;43583;53.132;6.574;2023-07-13T05:57:30;3.28;;;0.20;;
57752;SDS011;43583;53.132;6.574;2023-07-13T05:59:56;3.65;;;0.30;;
57752;SDS011;43583;53.132;6.574;2023-07-13T06:02:22;3.22;;;0.30;;
57752;SDS011;43583;53.132;6.574;2023-07-13T06:04:48;1.25;;;0.30;;
57752;SDS011;43583;53.132;6.574;2023-07-13T06:07:14;2.65;;;0.30;;
57752;SDS011;43583;53.132;6.574;2023-07-13T06:09:39;3.13;;;0.30;;
57752;SDS011;43583;53.132;6.574;2023-07-13T06:12:05;2.30;;;0.38;;
57752;SDS011;43583;53.132;6.574;2023-07-13T06:14:31;1.88;;;0.20;;
57752;SDS011;43583;53.132;6.574;2023-07-13T06:16:57;3.85;;;0.60;;
57752;SDS011;43583;53.132;6.574;2023-07-13T06:19:23;3.30;;;0.20;;
57752;SDS011;43583;53.132;6.574;2023-07-13T06:21:48;3.30;;;0.30;;
57752;SDS011;43583;53.132;6.574;2023-07-13T06:24:14;1.92;;;0.20;;
57752;SDS011;43583;53.132;6.574;2023-07-13T06:26:39;2.47;;;0.52;;
57752;SDS011;43583;53.132;6.574;2023-07-13T06:29:05;3.13;;;0.20;;
57752;SDS011;43583;53.132;6.574;2023-07-13T06:31:31;2.30;;;0.20;;
57752;SDS011;43583;53.132;6.574;2023-07-13T06:33:56;3.97;;;0.57;;
57752;SDS011;43583;53.132;6.574;2023-07-13T06:36:22;2.03;;;0.30;;
57752;SDS011;43583;53.132;6.574;2023-07-13T06:38:47;2.17;;;0.35;;
57752;SDS011;43583;53.132;6.574;2023-07-13T06:41:13;2.60;;;0.20;;
57752;SDS011;43583;53.132;6.574;2023-07-13T06:43:39;2.67;;;0.28;;
57752;SDS011;43583;53.132;6.574;2023-07-13T06:46:04;3.25;;;0.20;;
57752;SDS011;43583;53.132;6.574;2023-07-13T06:48:30;2.25;;;0.35;;
57752;SDS011;43583;53.132;6.574;2023-07-13T06:50:55;6.13;;;0.25;;
57752;SDS011;43583;53.132;6.574;2023-07-13T06:53:22;1.88;;;0.10;;
57752;SDS011;43583;53.132;6.574;2023-07-13T06:55:48;2.60;;;0.20;;
57752;SDS011;43583;53.132;6.574;2023-07-13T06:58:14;2.20;;;0.22;;
57752;SDS011;43583;53.132;6.574;2023-07-13T07:00:41;2.72;;;0.20;;
57752;SDS011;43583;53.132;6.574;2023-07-13T07:03:07;2.45;;;0.30;;
57752;SDS011;43583;53.132;6.574;2023-07-13T07:05:33;2.60;;;0.10;;
57752;SDS011;43583;53.132;6.574;2023-07-13T07:07:58;3.38;;;0.47;;
57752;SDS011;43583;53.132;6.574;2023-07-13T07:10:25;2.83;;;0.20;;
57752;SDS011;43583;53.132;6.574;2023-07-13T07:12:51;2.25;;;0.20;;
57752;SDS011;43583;53.132;6.574;2023-07-13T07:15:17;2.13;;;0.10;;
57752;SDS011;43583;53.132;6.574;2023-07-13T07:17:43;0.98;;;0.20;;
57752;SDS011;43583;53.132;6.574;2023-07-13T07:20:09;2.58;;;0.20;;
57752;SDS011;43583;53.132;6.574;2023-07-13T07:22:35;3.38;;;0.20;;
57752;SDS011;43583;53.132;6.574;2023-07-13T07:25:01;0.80;;;0.20;;
57752;SDS011;43583;53.132;6.574;2023-07-13T07:27:26;2.10;;;0.30;;
57752;SDS011;43583;53.132;6.574;2023-07-13T07:29:52;1.88;;;0.40;;
57752;SDS011;43583;53.132;6.574;2023-07-13T07:32:18;2.03;;;0.30;;
57752;SDS011;43583;53.132;6.574;2023-07-13T07:34:45;1.60;;;0.20;;
57752;SDS011;43583;53.132;6.574;2023-07-13T07:37:11;2.20;;;0.20;;
57752;SDS011;43583;53.132;6.574;2023-07-13T07:39:37;3.15;;;0.30;;
57752;SDS011;43583;53.132;6.574;2023-07-13T07:42:03;1.05;;;0.10;;
57752;SDS011;43583;53.132;6.574;2023-07-13T07:44:30;4.18;;;0.52;;
57752;SDS011;43583;53.132;6.574;2023-07-13T07:46:56;1.10;;;0.13;;
57752;SDS011;43583;53.132;6.574;2023-07-13T07:49:22;0.80;;;0.10;;
57752;SDS011;43583;53.132;6.574;2023-07-13T07:51:47;1.23;;;0.20;;
57752;SDS011;43583;53.132;6.574;2023-07-13T07:54:13;1.95;;;0.52;;
57752;SDS011;43583;53.132;6.574;2023-07-13T07:56:39;0.80;;;0.15;;
57752;SDS011;43583;53.132;6.574;2023-07-13T07:59:05;2.60;;;0.10;;
57752;SDS011;43583;53.132;6.574;2023-07-13T08:01:31;1.02;;;0.10;;
57752;SDS011;43583;53.132;6.574;2023-07-13T08:03:56;1.48;;;0.10;;
57752;SDS011;43583;53.132;6.574;2023-07-13T08:06:22;1.63;;;0.20;;
57752;SDS011;43583;53.132;6.574;2023-07-13T08:08:48;2.08;;;0.40;;
57752;SDS011;43583;53.132;6.574;2023-07-13T08:11:13;1.17;;;0.20;;
57752;SDS011;43583;53.132;6.574;2023-07-13T08:13:39;2.95;;;0.10;;
57752;SDS011;43583;53.132;6.574;2023-07-13T08:16:05;1.17;;;0.20;;
57752;SDS011;43583;53.132;6.574;2023-07-13T08:18:31;2.28;;;0.10;;
57752;SDS011;43583;53.132;6.574;2023-07-13T08:20:57;2.60;;;0.10;;
57752;SDS011;43583;53.132;6.574;2023-07-13T08:23:24;3.28;;;0.10;;
57752;SDS011;43583;53.132;6.574;2023-07-13T08:25:51;1.42;;;0.10;;
57752;SDS011;43583;53.132;6.574;2023-07-13T08:28:18;2.92;;;0.28;;
57752;SDS011;43583;53.132;6.574;2023-07-13T08:30:44;1.75;;;0.32;;
57752;SDS011;43583;53.132;6.574;2023-07-13T08:33:13;2.92;;;0.45;;
57752;SDS011;43583;53.132;6.574;2023-07-13T08:35:40;0.95;;;0.20;;
57752;SDS011;43583;53.132;6.574;2023-07-13T08:38:05;0.70;;;0.10;;
57752;SDS011;43583;53.132;6.574;2023-07-13T08:40:31;1.75;;;0.10;;
57752;SDS011;43583;53.132;6.574;2023-07-13T08:42:58;0.95;;;0.10;;
57752;SDS011;43583;53.132;6.574;2023-07-13T08:47:57;1.27;;;0.10;;
57752;SDS011;43583;53.132;6.574;2023-07-13T08:50:29;0.68;;;0.10;;
57752;SDS011;43583;53.132;6.574;2023-07-13T08:52:58;3.50;;;0.22;;
57752;SDS011;43583;53.132;6.574;2023-07-13T08:55:25;1.50;;;0.10;;
57752;SDS011;43583;53.132;6.574;2023-07-13T08:57:59;1.02;;;0.10;;
57752;SDS011;43583;53.132;6.574;2023-07-13T09:00:54;0.85;;;0.10;;
57752;SDS011;43583;53.132;6.574;2023-07-13T09:03:47;1.10;;;0.10;;
57752;SDS011;43583;53.132;6.574;2023-07-13T09:09:34;1.25;;;0.10;;
57752;SDS011;43583;53.132;6.574;2023-07-13T09:14:50;1.17;;;0.10;;
57752;SDS011;43583;53.132;6.574;2023-07-13T09:17:22;2.75;;;0.10;;
57752;SDS011;43583;53.132;6.574;2023-07-13T09:19:54;1.95;;;0.10;;
57752;SDS011;43583;53.132;6.574;2023-07-13T09:22:25;1.63;;;0.30;;
57752;SDS011;43583;53.132;6.574;2023-07-13T09:24:55;0.32;;;0.10;;
57752;SDS011;43583;53.132;6.574;2023-07-13T09:27:46;1.83;;;0.20;;
57752;SDS011;43583;53.132;6.574;2023-07-13T09:32:39;4.18;;;0.13;;
57752;SDS011;43583;53.132;6.574;2023-07-13T09:35:11;2.35;;;0.25;;
57752;SDS011;43583;53.132;6.574;2023-07-13T09:37:37;3.38;;;0.20;;
57752;SDS011;43583;53.132;6.574;2023-07-13T09:40:05;0.90;;;0.20;;
57752;SDS011;43583;53.132;6.574;2023-07-13T09:42:50;0.77;;;0.10;;
57752;SDS011;43583;53.132;6.574;2023-07-13T09:45:26;1.88;;;0.20;;
57752;SDS011;43583;53.132;6.574;2023-07-13T09:47:58;1.85;;;0.60;;
57752;SDS011;43583;53.132;6.574;2023-07-13T09:50:32;1.83;;;0.20;;
57752;SDS011;43583;53.132;6.574;2023-07-13T09:53:00;0.60;;;0.20;;
57752;SDS011;43583;53.132;6.574;2023-07-13T09:55:34;1.75;;;0.20;;
57752;SDS011;43583;53.132;6.574;2023-07-13T09:58:03;3.00;;;0.28;;
57752;SDS011;43583;53.132;6.574;2023-07-13T10:00:32;1.60;;;0.20;;
57752;SDS011;43583;53.132;6.574;2023-07-13T10:03:02;3.40;;;0.30;;
57752;SDS011;43583;53.132;6.574;2023-07-13T10:05:48;2.55;;;0.25;;
57752;SDS011;43583;53.132;6.574;2023-07-13T10:08:18;2.42;;;0.32;;
57752;SDS011;43583;53.132;6.574;2023-07-13T10:10:59;2.95;;;0.32;;
57752;SDS011;43583;53.132;6.574;2023-07-13T10:13:35;3.35;;;0.30;;
57752;SDS011;43583;53.132;6.574;2023-07-13T10:16:04;4.00;;;0.50;;
57752;SDS011;43583;53.132;6.574;2023-07-13T10:18:38;1.58;;;0.50;;
57752;SDS011;43583;53.132;6.574;2023-07-13T10:21:17;3.13;;;0.52;;
57752;SDS011;43583;53.132;6.574;2023-07-13T10:23:53;1.77;;;0.38;;
57752;SDS011;43583;53.132;6.574;2023-07-13T10:26:27;2.25;;;0.40;;
57752;SDS011;43583;53.132;6.574;2023-07-13T10:28:56;2.30;;;0.50;;
57752;SDS011;43583;53.132;6.574;2023-07-13T10:31:24;2.58;;;0.47;;
57752;SDS011;43583;53.132;6.574;2023-07-13T10:33:50;2.92;;;0.60;;
57752;SDS011;43583;53.132;6.574;2023-07-13T10:36:36;1.90;;;0.43;;
57752;SDS011;43583;53.132;6.574;2023-07-13T10:39:05;2.47;;;0.60;;
57752;SDS011;43583;53.132;6.574;2023-07-13T10:41:36;1.83;;;0.35;;
57752;SDS011;43583;53.132;6.574;2023-07-13T10:44:05;2.15;;;0.30;;
57752;SDS011;43583;53.132;6.574;2023-07-13T10:46:40;1.95;;;0.40;;
57752;SDS011;43583;53.132;6.574;2023-07-13T10:49:09;3.53;;;0.70;;
57752;SDS011;43583;53.132;6.574;2023-07-13T10:51:36;0.80;;;0.30;;
57752;SDS011;43583;53.132;6.574;2023-07-13T10:54:16;1.88;;;0.50;;
57752;SDS011;43583;53.132;6.574;2023-07-13T10:56:42;1.13;;;0.43;;
57752;SDS011;43583;53.132;6.574;2023-07-13T11:01:49;4.50;;;0.32;;
57752;SDS011;43583;53.132;6.574;2023-07-13T11:04:20;1.20;;;0.20;;
57752;SDS011;43583;53.132;6.574;2023-07-13T11:06:50;2.63;;;0.10;;
57752;SDS011;43583;53.132;6.574;2023-07-13T11:09:39;1.83;;;0.25;;
57752;SDS011;43583;53.132;6.574;2023-07-13T11:20:31;0.90;;;0.20;;
57752;SDS011;43583;53.132;6.574;2023-07-13T11:23:38;0.20;;;0.00;;
57752;SDS011;43583;53.132;6.574;2023-07-13T11:25:52;1.00;;;0.10;;
57752;SDS011;43583;53.132;6.574;2023-07-13T11:28:21;1.35;;;0.15;;
57752;SDS011;43583;53.132;6.574;2023-07-13T11:30:49;0.52;;;0.10;;
57752;SDS011;43583;53.132;6.574;2023-07-13T11:33:45;1.10;;;0.20;;
57752;SDS011;43583;53.132;6.574;2023-07-13T11:36:23;2.13;;;0.10;;
57752;SDS011;43583;53.132;6.574;2023-07-13T11:41:27;1.40;;;0.10;;
57752;SDS011;43583;53.132;6.574;2023-07-13T11:44:12;1.25;;;0.10;;
57752;SDS011;43583;53.132;6.574;2023-07-13T11:46:44;0.93;;;0.10;;
57752;SDS011;43583;53.132;6.574;2023-07-13T11:49:13;6.20;;;0.22;;
57752;SDS011;43583;53.132;6.574;2023-07-13T11:51:41;1.52;;;0.10;;
57752;SDS011;43583;53.132;6.574;2023-07-13T11:54:28;1.42;;;0.10;;
57752;SDS011;43583;53.132;6.574;2023-07-13T11:57:00;1.70;;;0.20;;
57752;SDS011;43583;53.132;6.574;2023-07-13T11:59:31;3.25;;;0.68;;
57752;SDS011;43583;53.132;6.574;2023-07-13T12:01:58;0.88;;;0.40;;
57752;SDS011;43583;53.132;6.574;2023-07-13T12:04:31;0.70;;;0.10;;
57752;SDS011;43583;53.132;6.574;2023-07-13T12:07:14;1.55;;;0.20;;
57752;SDS011;43583;53.132;6.574;2023-07-13T12:09:41;0.70;;;0.10;;
57752;SDS011;43583;53.132;6.574;2023-07-13T12:12:14;1.88;;;0.10;;
57752;SDS011;43583;53.132;6.574;2023-07-13T12:14:43;1.10;;;0.10;;
57752;SDS011;43583;53.132;6.574;2023-07-13T12:17:20;1.88;;;0.10;;
57752;SDS011;43583;53.132;6.574;2023-07-13T12:19:48;1.42;;;0.10;;
57752;SDS011;43583;53.132;6.574;2023-07-13T12:22:16;2.58;;;0.20;;
57752;SDS011;43583;53.132;6.574;2023-07-13T12:24:43;2.30;;;0.10;;
57752;SDS011;43583;53.132;6.574;2023-07-13T12:27:18;2.45;;;0.10;;
57752;SDS011;43583;53.132;6.574;2023-07-13T12:29:51;3.67;;;0.10;;
57752;SDS011;43583;53.132;6.574;2023-07-13T12:32:25;1.52;;;0.20;;
57752;SDS011;43583;53.132;6.574;2023-07-13T12:34:57;1.35;;;0.20;;
57752;SDS011;43583;53.132;6.574;2023-07-13T12:37:37;1.63;;;0.10;;
57752;SDS011;43583;53.132;6.574;2023-07-13T12:40:12;0.63;;;0.10;;
57752;SDS011;43583;53.132;6.574;2023-07-13T12:42:40;1.27;;;0.10;;
57752;SDS011;43583;53.132;6.574;2023-07-13T12:45:17;1.88;;;0.10;;
57752;SDS011;43583;53.132;6.574;2023-07-13T12:47:48;1.10;;;0.10;;
57752;SDS011;43583;53.132;6.574;2023-07-13T12:50:16;2.70;;;0.10;;
57752;SDS011;43583;53.132;6.574;2023-07-13T12:52:44;1.20;;;0.20;;
57752;SDS011;43583;53.132;6.574;2023-07-13T12:55:17;1.25;;;0.05;;
57752;SDS011;43583;53.132;6.574;2023-07-13T12:57:49;1.52;;;0.10;;
57752;SDS011;43583;53.132;6.574;2023-07-13T13:00:28;0.65;;;0.10;;
57752;SDS011;43583;53.132;6.574;2023-07-13T13:05:58;1.08;;;0.10;;
57752;SDS011;43583;53.132;6.574;2023-07-13T13:08:25;0.40;;;0.08;;
57752;SDS011;43583;53.132;6.574;2023-07-13T13:10:50;0.65;;;0.10;;
57752;SDS011;43583;53.132;6.574;2023-07-13T13:13:16;0.90;;;0.10;;
57752;SDS011;43583;53.132;6.574;2023-07-13T13:15:42;2.00;;;0.10;;
57752;SDS011;43583;53.132;6.574;2023-07-13T13:18:21;0.40;;;0.00;;
57752;SDS011;43583;53.132;6.574;2023-07-13T13:20:49;1.27;;;0.10;;
57752;SDS011;43583;53.132;6.574;2023-07-13T13:23:16;0.93;;;0.10;;
57752;SDS011;43583;53.132;6.574;2023-07-13T13:25:44;2.60;;;0.10;;
57752;SDS011;43583;53.132;6.574;2023-07-13T13:28:14;0.10;;;0.00;;
57752;SDS011;43583;53.132;6.574;2023-07-13T13:30:42;1.02;;;0.10;;
57752;SDS011;43583;53.132;6.574;2023-07-13T13:33:12;1.55;;;0.35;;
57752;SDS011;43583;53.132;6.574;2023-07-13T13:35:39;2.13;;;0.10;;
57752;SDS011;43583;53.132;6.574;2023-07-13T13:38:16;0.77;;;0.10;;
57752;SDS011;43583;53.132;6.574;2023-07-13T13:40:44;1.38;;;0.03;;
57752;SDS011;43583;53.132;6.574;2023-07-13T13:43:23;1.00;;;0.00;;
57752;SDS011;43583;53.132;6.574;2023-07-13T13:45:55;0.70;;;0.10;;
57752;SDS011;43583;53.132;6.574;2023-07-13T13:48:28;1.25;;;0.10;;
57752;SDS011;43583;53.132;6.574;2023-07-13T13:50:56;0.80;;;0.10;;
57752;SDS011;43583;53.132;6.574;2023-07-13T13:53:22;1.15;;;0.10;;
57752;SDS011;43583;53.132;6.574;2023-07-13T13:55:51;1.17;;;0.10;;
57752;SDS011;43583;53.132;6.574;2023-07-13T13:58:18;2.28;;;0.10;;
57752;SDS011;43583;53.132;6.574;2023-07-13T14:00:43;0.32;;;0.00;;
57752;SDS011;43583;53.132;6.574;2023-07-13T14:03:17;1.15;;;0.10;;
57752;SDS011;43583;53.132;6.574;2023-07-13T14:05:44;0.60;;;0.10;;
57752;SDS011;43583;53.132;6.574;2023-07-13T14:08:12;0.52;;;0.10;;
57752;SDS011;43583;53.132;6.574;2023-07-13T14:10:44;1.08;;;0.10;;
57752;SDS011;43583;53.132;6.574;2023-07-13T14:13:31;2.55;;;0.13;;
57752;SDS011;43583;53.132;6.574;2023-07-13T14:16:01;1.17;;;0.10;;
57752;SDS011;43583;53.132;6.574;2023-07-13T14:18:27;2.10;;;0.10;;
57752;SDS011;43583;53.132;6.574;2023-07-13T14:20:52;1.83;;;0.10;;
57752;SDS011;43583;53.132;6.574;2023-07-13T14:23:18;0.95;;;0.08;;
57752;SDS011;43583;53.132;6.574;2023-07-13T14:25:44;1.10;;;0.10;;
57752;SDS011;43583;53.132;6.574;2023-07-13T14:28:22;2.90;;;0.05;;
57752;SDS011;43583;53.132;6.574;2023-07-13T14:30:50;2.30;;;0.10;;
57752;SDS011;43583;53.132;6.574;2023-07-13T14:33:16;0.55;;;0.10;;
57752;SDS011;43583;53.132;6.574;2023-07-13T14:35:42;1.52;;;0.10;;
57752;SDS011;43583;53.132;6.574;2023-07-13T14:38:13;1.88;;;0.40;;
57752;SDS011;43583;53.132;6.574;2023-07-13T14:40:42;1.63;;;0.40;;
57752;SDS011;43583;53.132;6.574;2023-07-13T14:43:11;2.00;;;0.10;;
57752;SDS011;43583;53.132;6.574;2023-07-13T14:45:39;1.85;;;0.10;;
57752;SDS011;43583;53.132;6.574;2023-07-13T14:48:16;1.80;;;0.20;;
57752;SDS011;43583;53.132;6.574;2023-07-13T14:50:49;1.90;;;0.10;;
57752;SDS011;43583;53.132;6.574;2023-07-13T14:53:21;2.17;;;0.10;;
57752;SDS011;43583;53.132;6.574;2023-07-13T14:55:48;0.95;;;0.10;;
57752;SDS011;43583;53.132;6.574;2023-07-13T14:58:13;2.03;;;0.10;;
57752;SDS011;43583;53.132;6.574;2023-07-13T15:00:39;0.63;;;0.08;;
57752;SDS011;43583;53.132;6.574;2023-07-13T15:03:05;3.53;;;0.20;;
57752;SDS011;43583;53.132;6.574;2023-07-13T15:05:44;1.27;;;0.20;;
57752;SDS011;43583;53.132;6.574;2023-07-13T15:08:10;1.00;;;0.40;;
57752;SDS011;43583;53.132;6.574;2023-07-13T15:10:36;1.80;;;0.10;;
57752;SDS011;43583;53.132;6.574;2023-07-13T15:13:12;3.25;;;0.30;;
57752;SDS011;43583;53.132;6.574;2023-07-13T15:15:46;1.23;;;0.20;;
57752;SDS011;43583;53.132;6.574;2023-07-13T15:18:14;1.73;;;0.10;;
57752;SDS011;43583;53.132;6.574;2023-07-13T15:20:42;1.58;;;0.10;;
57752;SDS011;43583;53.132;6.574;2023-07-13T15:23:10;1.45;;;0.30;;